»·PEaware :: AAL688 KDFW-EGLL

AAL688 :: KDFW-EGLL

FLIGHT INFORMATION

Flight Status: Arrived
Operator:
American Airlines
More flights by this operator :: More flights under this callsign
Pilot: Anonymous 14085 (14085)
Aircraft: BOEING 767-300
(B763)
More flights by this aircraft type
Origin: KDFW Dallas-Ft Worth Intl
United States
Destination: EGLL Heathrow
United Kingdom
More flights between these airports :: More routes between these airports
Route: DALL4 LIT J31 PXV FLM AIR PSB MIP LVZ IGN PUT LFV KANNI N139A PORTI NATV DINIM ELSOX ELTIG EVRIN UL607 NUMPO UP2 BEDEK
File this flight plan on PilotEdge
Remarks: Snoozen
Altitude:
(Current/Filed)
35,000ft
Speed:
(Current/Filed)
450kts
Departed: 28-Jan-17 12:30 AM
Arrived: 28-Jan-17 09:17 AM
Distance/Time
Traveled:
4116nm/8:47
Distance/Time
To Go:
Arrived

Flight Plot

Page will automatically refresh every two minutes.

Flight plan parsing failed; only flown route is shown


Map Options




Map Legend


Flown Route
Filed Route
Departure Airport
Arrival Airport
Navaid (VOR, NDB)
Fix

Horizontal Profiles

Position Reports

Time Latitude Longitude Heading Altitude Ground
Speed
27-Jan-17 23:32 32.904261 -97.035019 311 617ft 0kts
27-Jan-17 23:33 32.904261 -97.035019 311 617ft 0kts
27-Jan-17 23:34 32.904261 -97.035019 311 617ft 0kts
27-Jan-17 23:35 32.904261 -97.035019 311 617ft 0kts
27-Jan-17 23:36 32.904261 -97.035019 311 617ft 0kts
27-Jan-17 23:37 32.904261 -97.035019 311 617ft 0kts
27-Jan-17 23:38 32.904261 -97.035019 311 617ft 0kts
27-Jan-17 23:39 32.904261 -97.035019 311 617ft 0kts
27-Jan-17 23:40 32.904261 -97.035019 311 617ft 0kts
27-Jan-17 23:41 32.904261 -97.035019 311 617ft 0kts
27-Jan-17 23:42 32.904261 -97.035019 311 617ft 0kts
27-Jan-17 23:43 32.904261 -97.035019 311 617ft 0kts
27-Jan-17 23:44 32.904261 -97.035019 311 617ft 0kts
27-Jan-17 23:45 32.904261 -97.035019 311 617ft 0kts
27-Jan-17 23:46 32.904261 -97.035019 311 617ft 0kts
27-Jan-17 23:47 32.904261 -97.035019 311 617ft 0kts
27-Jan-17 23:48 32.904261 -97.035019 311 617ft 0kts
27-Jan-17 23:49 32.904261 -97.035019 311 617ft 0kts
27-Jan-17 23:50 32.904261 -97.035019 311 617ft 0kts
27-Jan-17 23:51 32.904261 -97.035019 311 617ft 0kts
27-Jan-17 23:52 32.904261 -97.035019 311 617ft 0kts
27-Jan-17 23:53 32.904261 -97.035019 311 617ft 0kts
27-Jan-17 23:54 32.904261 -97.035019 311 617ft 0kts
27-Jan-17 23:55 32.904261 -97.035019 311 617ft 0kts
27-Jan-17 23:56 32.904261 -97.035019 311 617ft 0kts
27-Jan-17 23:57 32.904261 -97.035019 311 617ft 0kts
27-Jan-17 23:58 32.904261 -97.035019 311 617ft 0kts
27-Jan-17 23:59 32.904261 -97.035019 311 617ft 0kts
28-Jan-17 00:00 32.904261 -97.035019 311 617ft 0kts
28-Jan-17 00:01 32.904261 -97.035019 311 617ft 0kts
28-Jan-17 00:02 32.904261 -97.035019 311 617ft 0kts
28-Jan-17 00:03 32.904261 -97.035019 311 617ft 0kts
28-Jan-17 00:04 32.904261 -97.035019 311 617ft 0kts
28-Jan-17 00:05 32.904261 -97.035019 311 617ft 0kts
28-Jan-17 00:06 32.904261 -97.035019 311 617ft 0kts
28-Jan-17 00:07 32.904261 -97.035019 311 617ft 0kts
28-Jan-17 00:08 32.904261 -97.035019 311 617ft 0kts
28-Jan-17 00:09 32.904262 -97.035019 311 617ft 0kts
28-Jan-17 00:10 32.904262 -97.035019 311 617ft 0kts
28-Jan-17 00:11 32.903973 -97.034633 311 617ft 2kts
28-Jan-17 00:12 32.903493 -97.033981 310 617ft 0kts
28-Jan-17 00:13 32.903493 -97.033981 310 617ft 0kts
28-Jan-17 00:14 32.903493 -97.033981 310 617ft 0kts
28-Jan-17 00:15 32.903493 -97.033981 310 617ft 0kts
28-Jan-17 00:16 32.903493 -97.033981 310 617ft 0kts
28-Jan-17 00:17 32.903493 -97.033981 310 617ft 0kts
28-Jan-17 00:18 32.903493 -97.033981 310 617ft 0kts
28-Jan-17 00:19 32.903493 -97.033981 310 617ft 0kts
28-Jan-17 00:20 32.903493 -97.033981 310 617ft 0kts
28-Jan-17 00:21 32.915564 -97.029879 180 618ft 0kts
28-Jan-17 00:22 32.915563 -97.029883 180 618ft 0kts
28-Jan-17 00:23 32.879140 -97.050926 0 617ft 0kts
28-Jan-17 00:24 32.879140 -97.050926 0 617ft 0kts
28-Jan-17 00:25 32.879140 -97.050926 0 617ft 0kts
28-Jan-17 00:26 32.879140 -97.050926 0 617ft 0kts
28-Jan-17 00:27 32.879140 -97.050926 0 617ft 0kts
28-Jan-17 00:28 32.879140 -97.050926 0 617ft 0kts
28-Jan-17 00:29 32.879725 -97.050921 359 617ft 29kts
28-Jan-17 00:30 32.914300 -97.048817 2 1316ft 191kts
28-Jan-17 00:31 32.964827 -97.011838 81 3444ft 260kts
28-Jan-17 00:32 32.959493 -96.923798 93 6357ft 276kts
28-Jan-17 00:33 32.972675 -96.819702 64 9672ft 284kts
28-Jan-17 00:34 33.001020 -96.743084 61 11008ft 337kts
28-Jan-17 00:35 33.041953 -96.638083 60 13811ft 361kts
28-Jan-17 00:36 33.072257 -96.560624 59 15691ft 373kts
28-Jan-17 00:37 33.114922 -96.451314 59 18051ft 389kts
28-Jan-17 00:38 33.161505 -96.331557 59 20222ft 408kts
28-Jan-17 00:39 33.210191 -96.205916 59 22194ft 427kts
28-Jan-17 00:40 33.260490 -96.075617 59 23941ft 445kts
28-Jan-17 00:41 33.312910 -95.939267 59 25549ft 463kts
28-Jan-17 00:42 33.367202 -95.798521 60 26956ft 479kts
28-Jan-17 00:43 33.422894 -95.652662 60 28311ft 493kts
28-Jan-17 00:44 33.479873 -95.502564 61 29549ft 507kts
28-Jan-17 00:45 33.538325 -95.347859 61 30696ft 520kts
28-Jan-17 00:46 33.597489 -95.190549 62 31745ft 533kts
28-Jan-17 00:47 33.659894 -95.023733 62 32257ft 559kts
28-Jan-17 00:48 33.722722 -94.855472 62 33134ft 572kts
28-Jan-17 00:49 33.788196 -94.679731 63 34063ft 580kts
28-Jan-17 00:50 33.845229 -94.524947 63 35103ft 578kts
28-Jan-17 00:51 33.902704 -94.368193 62 35295ft 575kts
28-Jan-17 00:52 33.970635 -94.214262 43 35300ft 562kts
28-Jan-17 00:53 34.060739 -94.083897 46 35305ft 564kts
28-Jan-17 00:54 34.148463 -93.941163 47 35289ft 564kts
28-Jan-17 00:55 34.231508 -93.804982 48 35247ft 566kts
28-Jan-17 00:56 34.322288 -93.654613 48 35253ft 566kts
28-Jan-17 00:57 34.404767 -93.517270 48 35255ft 566kts
28-Jan-17 00:58 34.476815 -93.396853 48 35261ft 567kts
28-Jan-17 00:59 34.562895 -93.252418 48 35260ft 566kts
28-Jan-17 01:00 34.633767 -93.133077 48 35264ft 566kts
28-Jan-17 01:01 34.678045 -93.058311 48 35264ft 569kts
28-Jan-17 01:02 34.719847 -92.987574 48 35266ft 571kts
28-Jan-17 01:03 34.764698 -92.911538 48 35263ft 574kts
28-Jan-17 01:04 34.810685 -92.834140 48 35223ft 575kts
28-Jan-17 01:05 34.891100 -92.697508 48 35230ft 575kts
28-Jan-17 01:06 34.976265 -92.551736 49 35211ft 535kts
28-Jan-17 01:07 35.044159 -92.435179 50 35219ft 516kts
28-Jan-17 01:08 35.112348 -92.317701 49 35224ft 517kts
28-Jan-17 01:09 35.183910 -92.193966 49 35226ft 517kts
28-Jan-17 01:10 35.255502 -92.069742 50 35224ft 517kts
28-Jan-17 01:11 35.330008 -91.939993 49 35227ft 517kts
28-Jan-17 01:12 35.411886 -91.797833 50 35204ft 517kts
28-Jan-17 01:13 35.494313 -91.653326 50 35183ft 518kts
28-Jan-17 01:14 35.575542 -91.510159 50 35173ft 518kts
28-Jan-17 01:15 35.657482 -91.365114 50 35174ft 517kts
28-Jan-17 01:16 35.739414 -91.219489 50 35170ft 518kts
28-Jan-17 01:17 35.819699 -91.076193 50 35157ft 524kts
28-Jan-17 01:18 35.902559 -90.927667 50 35158ft 530kts
28-Jan-17 01:19 35.984932 -90.780454 51 35154ft 530kts
28-Jan-17 01:20 36.068187 -90.630077 50 35157ft 530kts
28-Jan-17 01:21 36.150926 -90.479847 51 35164ft 531kts
28-Jan-17 01:22 36.233653 -90.328964 51 35141ft 531kts
28-Jan-17 01:23 36.316232 -90.177682 51 35132ft 531kts
28-Jan-17 01:24 36.398595 -90.026132 51 35135ft 531kts
28-Jan-17 01:25 36.480103 -89.875642 51 35124ft 531kts
28-Jan-17 01:26 36.561791 -89.725040 51 35120ft 531kts
28-Jan-17 01:27 36.646611 -89.575477 41 35098ft 524kts
28-Jan-17 01:28 36.744357 -89.441190 42 35091ft 525kts
28-Jan-17 01:29 36.841699 -89.306259 42 35094ft 525kts
28-Jan-17 01:30 36.939137 -89.170612 42 35095ft 525kts
28-Jan-17 01:31 37.034956 -89.036626 42 35096ft 507kts
28-Jan-17 01:32 37.126533 -88.908126 43 35092ft 493kts
28-Jan-17 01:33 37.217217 -88.781332 43 35078ft 499kts
28-Jan-17 01:34 37.309217 -88.651282 44 35081ft 499kts
28-Jan-17 01:35 37.400765 -88.521260 44 35061ft 499kts
28-Jan-17 01:36 37.492276 -88.390764 44 35054ft 499kts
28-Jan-17 01:37 37.582880 -88.261048 44 35058ft 499kts
28-Jan-17 01:38 37.674083 -88.129930 44 35055ft 499kts
28-Jan-17 01:39 37.765354 -87.998191 44 35047ft 500kts
28-Jan-17 01:40 37.855735 -87.867513 44 35046ft 499kts
28-Jan-17 01:41 37.935017 -87.723534 67 35057ft 510kts
28-Jan-17 01:42 37.975692 -87.551338 72 35057ft 512kts
28-Jan-17 01:43 38.014188 -87.378608 72 35063ft 512kts
28-Jan-17 01:44 38.052531 -87.204747 72 35059ft 512kts
28-Jan-17 01:45 38.090515 -87.031162 72 35051ft 515kts
28-Jan-17 01:46 38.128674 -86.856241 72 35039ft 523kts
28-Jan-17 01:47 38.167048 -86.679934 73 35041ft 522kts
28-Jan-17 01:48 38.205073 -86.502046 73 35042ft 523kts
28-Jan-17 01:49 38.242799 -86.324022 73 35038ft 522kts
28-Jan-17 01:50 38.280245 -86.145870 73 35046ft 522kts
28-Jan-17 01:51 38.316990 -85.969579 72 35050ft 515kts
28-Jan-17 01:52 38.353522 -85.795161 73 35043ft 515kts
28-Jan-17 01:53 38.389684 -85.619502 73 35043ft 514kts
28-Jan-17 01:54 38.425491 -85.443466 73 35043ft 514kts
28-Jan-17 01:55 38.461163 -85.266599 73 35029ft 514kts
28-Jan-17 01:56 38.496541 -85.089700 73 35025ft 519kts
28-Jan-17 01:57 38.532008 -84.910818 73 35027ft 524kts
28-Jan-17 01:58 38.567416 -84.733504 74 35013ft 524kts
28-Jan-17 01:59 38.602508 -84.553651 74 34989ft 524kts
28-Jan-17 02:00 38.637457 -84.372666 74 34990ft 524kts
28-Jan-17 02:01 38.693682 -84.203259 58 35005ft 518kts
28-Jan-17 02:02 38.760044 -84.041843 58 35005ft 518kts
28-Jan-17 02:03 38.826212 -83.880155 58 34998ft 519kts
28-Jan-17 02:04 38.893298 -83.716738 59 34996ft 517kts
28-Jan-17 02:05 38.958884 -83.554748 59 34971ft 508kts
28-Jan-17 02:06 39.023294 -83.394755 59 34954ft 500kts
28-Jan-17 02:07 39.086540 -83.236841 59 34957ft 498kts
28-Jan-17 02:08 39.149757 -83.078170 59 34958ft 498kts
28-Jan-17 02:09 39.212428 -82.920050 59 34960ft 499kts
28-Jan-17 02:10 39.275175 -82.762430 60 34949ft 500kts
28-Jan-17 02:11 39.337921 -82.602655 60 34926ft 500kts
28-Jan-17 02:12 39.400322 -82.442726 60 34917ft 500kts
28-Jan-17 02:13 39.462661 -82.282099 60 34918ft 500kts
28-Jan-17 02:14 39.524716 -82.121347 60 34920ft 500kts
28-Jan-17 02:15 39.585773 -81.962323 60 34906ft 500kts
28-Jan-17 02:16 39.647313 -81.802548 60 34889ft 501kts
28-Jan-17 02:17 39.708527 -81.641811 60 34889ft 500kts
28-Jan-17 02:18 39.769779 -81.479716 60 34897ft 501kts
28-Jan-17 02:19 39.830699 -81.317583 60 34896ft 501kts
28-Jan-17 02:20 39.891582 -81.154659 61 34894ft 501kts
28-Jan-17 02:21 39.952113 -80.991795 61 34875ft 504kts
28-Jan-17 02:22 40.012991 -80.828178 61 34842ft 507kts
28-Jan-17 02:23 40.069589 -80.660316 64 34842ft 508kts
28-Jan-17 02:24 40.125566 -80.491388 64 34837ft 508kts
28-Jan-17 02:25 40.181490 -80.321618 64 34835ft 508kts
28-Jan-17 02:26 40.236762 -80.152782 64 34830ft 508kts
28-Jan-17 02:27 40.292177 -79.982486 64 34823ft 508kts
28-Jan-17 02:28 40.347051 -79.814212 64 34815ft 508kts
28-Jan-17 02:29 40.402114 -79.643527 65 34817ft 508kts
28-Jan-17 02:30 40.456598 -79.472999 65 34825ft 508kts
28-Jan-17 02:31 40.511040 -79.301503 64 34815ft 508kts
28-Jan-17 02:32 40.564343 -79.132536 65 34806ft 510kts
28-Jan-17 02:33 40.618163 -78.960853 65 34800ft 514kts
28-Jan-17 02:34 40.672323 -78.788675 66 34761ft 515kts
28-Jan-17 02:35 40.726369 -78.614483 66 34753ft 515kts
28-Jan-17 02:36 40.780146 -78.439613 66 34763ft 515kts
28-Jan-17 02:37 40.833616 -78.264564 66 34764ft 515kts
28-Jan-17 02:38 40.886707 -78.089630 66 34766ft 515kts
28-Jan-17 02:39 40.922430 -77.906944 82 34775ft 517kts
28-Jan-17 02:40 40.939567 -77.720706 84 34759ft 516kts
28-Jan-17 02:41 40.955241 -77.532414 84 34762ft 517kts
28-Jan-17 02:42 40.970518 -77.343892 84 34789ft 515kts
28-Jan-17 02:43 40.985447 -77.155869 83 34807ft 513kts
28-Jan-17 02:44 40.999996 -76.968696 83 34804ft 513kts
28-Jan-17 02:45 41.014641 -76.782695 84 34794ft 516kts
28-Jan-17 02:46 41.041322 -76.598280 70 34799ft 511kts
28-Jan-17 02:47 41.086573 -76.421885 69 34760ft 502kts
28-Jan-17 02:48 41.130838 -76.249305 70 34734ft 495kts
28-Jan-17 02:49 41.174857 -76.076526 70 34738ft 496kts
28-Jan-17 02:50 41.218805 -75.902771 70 34732ft 496kts
28-Jan-17 02:51 41.262325 -75.731849 70 34714ft 495kts
28-Jan-17 02:52 41.301882 -75.557182 72 34711ft 495kts
28-Jan-17 02:53 41.339945 -75.381536 72 34672ft 495kts
28-Jan-17 02:54 41.377746 -75.205723 72 34664ft 495kts
28-Jan-17 02:55 41.415327 -75.029518 72 34669ft 499kts
28-Jan-17 02:56 41.452985 -74.852456 73 34667ft 504kts
28-Jan-17 02:57 41.491023 -74.673013 73 34687ft 504kts
28-Jan-17 02:58 41.528341 -74.493605 73 34688ft 504kts
28-Jan-17 02:59 41.565018 -74.315646 73 34692ft 503kts
28-Jan-17 03:00 41.601823 -74.135507 73 34699ft 504kts
28-Jan-17 03:01 41.638329 -73.955239 73 34696ft 504kts
28-Jan-17 03:02 41.673125 -73.775014 78 34687ft 504kts
28-Jan-17 03:03 41.701073 -73.592871 77 34687ft 504kts
28-Jan-17 03:04 41.728964 -73.409598 77 34687ft 504kts
28-Jan-17 03:05 41.756591 -73.226004 77 34663ft 504kts
28-Jan-17 03:06 41.784115 -73.040974 77 34663ft 510kts
28-Jan-17 03:07 41.808962 -72.872465 78 34660ft 513kts
28-Jan-17 03:08 41.835713 -72.692403 78 34651ft 513kts
28-Jan-17 03:09 41.862646 -72.505287 78 34648ft 513kts
28-Jan-17 03:10 41.889395 -72.316926 78 34643ft 514kts
28-Jan-17 03:11 41.915696 -72.129406 78 34645ft 514kts
28-Jan-17 03:12 41.941499 -71.943142 78 34632ft 513kts
28-Jan-17 03:13 41.959095 -71.752911 87 34587ft 514kts
28-Jan-17 03:14 41.967063 -71.561697 87 34589ft 514kts
28-Jan-17 03:15 41.974364 -71.370629 87 34599ft 513kts
28-Jan-17 03:16 41.981335 -71.179049 87 34596ft 514kts
28-Jan-17 03:17 41.987938 -70.989165 87 34602ft 515kts
28-Jan-17 03:18 41.994753 -70.797225 88 34591ft 522kts
28-Jan-17 03:19 42.001046 -70.602625 88 34592ft 522kts
28-Jan-17 03:20 42.006828 -70.408298 88 34591ft 522kts
28-Jan-17 03:21 42.012295 -70.213238 88 34591ft 522kts
28-Jan-17 03:22 42.021720 -70.019528 76 34591ft 522kts
28-Jan-17 03:23 42.061641 -69.832401 72 34586ft 522kts
28-Jan-17 03:24 42.102081 -69.645111 72 34597ft 522kts
28-Jan-17 03:25 42.142021 -69.457252 73 34603ft 522kts
28-Jan-17 03:26 42.181573 -69.269477 73 34609ft 522kts
28-Jan-17 03:27 42.220859 -69.081282 73 34611ft 522kts
28-Jan-17 03:28 42.260047 -68.891849 73 34613ft 530kts
28-Jan-17 03:29 42.299915 -68.700356 73 34604ft 530kts
28-Jan-17 03:30 42.338884 -68.508580 73 34607ft 530kts
28-Jan-17 03:31 42.377416 -68.316975 73 34582ft 530kts
28-Jan-17 03:32 42.415633 -68.125110 74 34468ft 530kts
28-Jan-17 03:33 42.453617 -67.932578 74 34468ft 530kts
28-Jan-17 03:34 42.491791 -67.740190 74 34419ft 531kts
28-Jan-17 03:35 42.529222 -67.547047 74 34393ft 530kts
28-Jan-17 03:36 42.565365 -67.358410 74 34369ft 531kts
28-Jan-17 03:37 42.601991 -67.165314 74 34371ft 531kts
28-Jan-17 03:38 42.642593 -66.971786 63 34371ft 535kts
28-Jan-17 03:39 42.705630 -66.789361 63 34364ft 536kts
28-Jan-17 03:40 42.768161 -66.605696 63 34366ft 536kts
28-Jan-17 03:41 42.830122 -66.422012 63 34369ft 536kts
28-Jan-17 03:42 42.891919 -66.237553 63 34372ft 535kts
28-Jan-17 03:43 42.952344 -66.055950 63 34374ft 521kts
28-Jan-17 03:44 43.011321 -65.877672 63 34368ft 510kts
28-Jan-17 03:45 43.069158 -65.703501 63 34369ft 504kts
28-Jan-17 03:46 43.126173 -65.528862 64 34369ft 504kts
28-Jan-17 03:47 43.182889 -65.353885 63 34370ft 503kts
28-Jan-17 03:48 43.239385 -65.178447 64 34372ft 504kts
28-Jan-17 03:49 43.295604 -65.002703 64 34373ft 505kts
28-Jan-17 03:50 43.352421 -64.825259 65 34367ft 512kts
28-Jan-17 03:51 43.409022 -64.646754 65 34462ft 512kts
28-Jan-17 03:52 43.465281 -64.467324 64 34740ft 512kts
28-Jan-17 03:53 43.521230 -64.287624 65 34947ft 512kts
28-Jan-17 03:54 43.576793 -64.107900 65 34425ft 512kts
28-Jan-17 03:55 43.632183 -63.927491 64 34257ft 513kts
28-Jan-17 03:56 43.687899 -63.746852 65 34245ft 512kts
28-Jan-17 03:57 43.742740 -63.565975 65 34247ft 512kts
28-Jan-17 03:58 43.797536 -63.383711 65 34251ft 513kts
28-Jan-17 03:59 43.851852 -63.201739 65 34253ft 513kts
28-Jan-17 04:00 43.905942 -63.019243 66 34255ft 517kts
28-Jan-17 04:01 43.960791 -62.834054 66 34246ft 524kts
28-Jan-17 04:02 44.015659 -62.647315 67 34248ft 523kts
28-Jan-17 04:03 44.069869 -62.460352 67 34250ft 523kts
28-Jan-17 04:04 44.123726 -62.273170 67 34252ft 523kts
28-Jan-17 04:05 44.177391 -62.085243 67 34244ft 523kts
28-Jan-17 04:06 44.230598 -61.897507 68 34204ft 523kts
28-Jan-17 04:07 44.284256 -61.709088 68 34193ft 523kts
28-Jan-17 04:08 44.337117 -61.519859 68 34195ft 523kts
28-Jan-17 04:09 44.389381 -61.331153 68 34198ft 523kts
28-Jan-17 04:10 44.441616 -61.141085 68 34200ft 525kts
28-Jan-17 04:11 44.493794 -60.949754 69 34204ft 532kts
28-Jan-17 04:12 44.546494 -60.757118 69 34196ft 532kts
28-Jan-17 04:13 44.598245 -60.564622 70 34190ft 531kts
28-Jan-17 04:14 44.649833 -60.370798 69 34193ft 532kts
28-Jan-17 04:15 44.701174 -60.176315 70 34195ft 532kts
28-Jan-17 04:16 44.752038 -59.982049 70 34199ft 532kts
28-Jan-17 04:17 44.803195 -59.787147 70 34189ft 532kts
28-Jan-17 04:18 44.853561 -59.592196 70 34192ft 532kts
28-Jan-17 04:19 44.903607 -59.396234 70 34195ft 532kts
28-Jan-17 04:20 44.953175 -59.200474 70 34198ft 531kts
28-Jan-17 04:21 45.002178 -59.005303 70 34199ft 526kts
28-Jan-17 04:22 45.051142 -58.810513 72 34191ft 525kts
28-Jan-17 04:23 45.099157 -58.616911 72 34194ft 519kts
28-Jan-17 04:24 45.138216 -58.457458 72 34196ft 516kts
28-Jan-17 04:25 45.192660 -58.233254 72 34198ft 516kts
28-Jan-17 04:26 45.238787 -58.041527 72 34201ft 516kts
28-Jan-17 04:27 45.284875 -57.849285 72 34205ft 516kts
28-Jan-17 04:28 45.330874 -57.656676 73 34210ft 516kts
28-Jan-17 04:29 45.376301 -57.462964 73 34212ft 516kts
28-Jan-17 04:30 45.421159 -57.269888 73 34214ft 516kts
28-Jan-17 04:31 45.465791 -57.076070 73 34216ft 517kts
28-Jan-17 04:32 45.502899 -56.913589 73 34219ft 521kts
28-Jan-17 04:33 45.547969 -56.717461 73 34212ft 522kts
28-Jan-17 04:34 45.591525 -56.523651 74 34205ft 522kts
28-Jan-17 04:35 45.642682 -56.293431 74 34208ft 522kts
28-Jan-17 04:36 45.678834 -56.129200 74 34210ft 522kts
28-Jan-17 04:37 45.728932 -55.899458 74 34213ft 522kts
28-Jan-17 04:38 45.765253 -55.734272 74 34205ft 522kts
28-Jan-17 04:39 45.807888 -55.535520 74 34207ft 522kts
28-Jan-17 04:40 45.850024 -55.336833 74 34209ft 522kts
28-Jan-17 04:41 45.891776 -55.138025 74 34211ft 523kts
28-Jan-17 04:42 45.933444 -54.937640 74 34215ft 528kts
28-Jan-17 04:43 45.975462 -54.736641 75 34207ft 527kts
28-Jan-17 04:44 46.016677 -54.534840 75 34209ft 527kts
28-Jan-17 04:45 46.057523 -54.332401 75 34211ft 527kts
28-Jan-17 04:46 46.097905 -54.130180 75 34221ft 527kts
28-Jan-17 04:47 46.137877 -53.927958 75 34238ft 527kts
28-Jan-17 04:48 46.178163 -53.725254 76 34230ft 527kts
28-Jan-17 04:49 46.217535 -53.522198 76 34232ft 527kts
28-Jan-17 04:50 46.256488 -53.318796 76 34234ft 526kts
28-Jan-17 04:51 46.294962 -53.115728 76 34246ft 527kts
28-Jan-17 04:52 46.333330 -52.910984 76 34250ft 530kts
28-Jan-17 04:53 46.372227 -52.704678 77 34241ft 533kts
28-Jan-17 04:54 46.409755 -52.500258 77 34244ft 533kts
28-Jan-17 04:55 46.447806 -52.290327 77 34246ft 533kts
28-Jan-17 04:56 46.485051 -52.082468 77 34249ft 533kts
28-Jan-17 04:57 46.531017 -51.878265 70 34250ft 535kts
28-Jan-17 04:58 46.583504 -51.678513 70 34234ft 535kts
28-Jan-17 04:59 46.635343 -51.475914 70 34237ft 535kts
28-Jan-17 05:00 46.686632 -51.273494 70 34240ft 535kts
28-Jan-17 05:01 46.737564 -51.070679 71 34242ft 535kts
28-Jan-17 05:02 46.788553 -50.866198 71 34236ft 537kts
28-Jan-17 05:03 46.839463 -50.662282 71 34236ft 537kts
28-Jan-17 05:04 46.889615 -50.457183 71 34240ft 536kts
28-Jan-17 05:05 46.939103 -50.252831 72 34242ft 531kts
28-Jan-17 05:06 46.987674 -50.050402 72 34244ft 526kts
28-Jan-17 05:07 47.037435 -49.850493 71 34236ft 522kts
28-Jan-17 05:08 47.087646 -49.650902 72 34239ft 521kts
28-Jan-17 05:09 47.136871 -49.451595 72 34242ft 521kts
28-Jan-17 05:10 47.185818 -49.251541 72 34244ft 522kts
28-Jan-17 05:11 47.234440 -49.051007 71 34246ft 522kts
28-Jan-17 05:12 47.282975 -48.849958 72 34238ft 522kts
28-Jan-17 05:13 47.331400 -48.648651 72 34241ft 522kts
28-Jan-17 05:14 47.378926 -48.447299 72 34244ft 522kts
28-Jan-17 05:15 47.426267 -48.244756 72 34246ft 522kts
28-Jan-17 05:16 47.473127 -48.042389 72 34248ft 522kts
28-Jan-17 05:17 47.519896 -47.839798 72 34240ft 522kts
28-Jan-17 05:18 47.566398 -47.636996 73 34234ft 522kts
28-Jan-17 05:19 47.612215 -47.433498 73 34237ft 522kts
28-Jan-17 05:20 47.657748 -47.229200 73 34239ft 522kts
28-Jan-17 05:21 47.702782 -47.025166 73 34242ft 522kts
28-Jan-17 05:22 47.747891 -46.820672 73 34234ft 522kts
28-Jan-17 05:23 47.792532 -46.615855 74 34237ft 522kts
28-Jan-17 05:24 47.836479 -46.410816 74 34239ft 522kts
28-Jan-17 05:25 47.880147 -46.204951 74 34242ft 522kts
28-Jan-17 05:26 47.923274 -45.999564 74 34244ft 522kts
28-Jan-17 05:27 47.966720 -45.793043 74 34237ft 522kts
28-Jan-17 05:28 48.009426 -45.586451 75 34239ft 522kts
28-Jan-17 05:29 48.051540 -45.379620 75 34241ft 522kts
28-Jan-17 05:30 48.093201 -45.172815 75 34244ft 522kts
28-Jan-17 05:31 48.134666 -44.964760 74 34246ft 523kts
28-Jan-17 05:32 48.176340 -44.756533 75 34239ft 523kts
28-Jan-17 05:33 48.217056 -44.548458 75 34241ft 523kts
28-Jan-17 05:34 48.257501 -44.338874 75 34244ft 523kts
28-Jan-17 05:35 48.297429 -44.129651 75 34246ft 523kts
28-Jan-17 05:36 48.337010 -43.919920 75 34248ft 523kts
28-Jan-17 05:37 48.376842 -43.710060 76 34241ft 523kts
28-Jan-17 05:38 48.415668 -43.499987 76 34243ft 523kts
28-Jan-17 05:39 48.454131 -43.289125 76 34246ft 523kts
28-Jan-17 05:40 48.492135 -43.078339 76 34248ft 524kts
28-Jan-17 05:41 48.530016 -42.866245 76 34242ft 524kts
28-Jan-17 05:42 48.567871 -42.654809 77 34235ft 524kts
28-Jan-17 05:43 48.604934 -42.441980 77 34237ft 524kts
28-Jan-17 05:44 48.641539 -42.229040 77 34240ft 524kts
28-Jan-17 05:45 48.677626 -42.016529 77 34242ft 524kts
28-Jan-17 05:46 48.713922 -41.802973 77 34234ft 524kts
28-Jan-17 05:47 48.749485 -41.589803 77 34237ft 524kts
28-Jan-17 05:48 48.784553 -41.375459 77 34239ft 524kts
28-Jan-17 05:49 48.819143 -41.161262 77 34242ft 524kts
28-Jan-17 05:50 48.853279 -40.947102 77 34244ft 524kts
28-Jan-17 05:51 48.887403 -40.734335 78 34989ft 521kts
28-Jan-17 05:52 48.920775 -40.520014 78 34999ft 523kts
28-Jan-17 05:53 48.953806 -40.304462 78 35001ft 523kts
28-Jan-17 05:54 48.986230 -40.090004 79 35003ft 520kts
28-Jan-17 05:55 49.028786 -39.881183 69 35028ft 519kts
28-Jan-17 05:56 49.081001 -39.677832 71 35031ft 513kts
28-Jan-17 05:57 49.131020 -39.475932 71 35047ft 508kts
28-Jan-17 05:58 49.180247 -39.275086 71 35050ft 509kts
28-Jan-17 05:59 49.229586 -39.071952 71 35052ft 508kts
28-Jan-17 06:00 49.278504 -38.868999 72 35048ft 507kts
28-Jan-17 06:01 49.327326 -38.666955 72 35049ft 507kts
28-Jan-17 06:02 49.375251 -38.464216 72 35050ft 507kts
28-Jan-17 06:03 49.422814 -38.260960 72 35052ft 507kts
28-Jan-17 06:04 49.470070 -38.057092 72 35054ft 507kts
28-Jan-17 06:05 49.517140 -37.852920 72 35049ft 507kts
28-Jan-17 06:06 49.564083 -37.648857 73 35041ft 507kts
28-Jan-17 06:07 49.610309 -37.443707 73 35043ft 507kts
28-Jan-17 06:08 49.656044 -37.238617 73 35045ft 507kts
28-Jan-17 06:09 49.701446 -37.033008 73 35047ft 508kts
28-Jan-17 06:10 49.746887 -36.826902 73 35041ft 507kts
28-Jan-17 06:11 49.791974 -36.620294 74 35044ft 507kts
28-Jan-17 06:12 49.836233 -36.413827 74 35046ft 507kts
28-Jan-17 06:13 49.880288 -36.206113 74 35047ft 508kts
28-Jan-17 06:14 49.923842 -35.998645 74 35049ft 507kts
28-Jan-17 06:15 49.967579 -35.790712 74 35045ft 507kts
28-Jan-17 06:16 50.010643 -35.582325 75 35046ft 507kts
28-Jan-17 06:17 50.053056 -35.373902 75 35048ft 507kts
28-Jan-17 06:18 50.095104 -35.165022 75 35050ft 507kts
28-Jan-17 06:19 50.136819 -34.955556 75 35051ft 507kts
28-Jan-17 06:20 50.178754 -34.745935 75 35047ft 505kts
28-Jan-17 06:21 50.219631 -34.536775 76 35049ft 505kts
28-Jan-17 06:22 50.260106 -34.326787 76 35050ft 505kts
28-Jan-17 06:23 50.300081 -34.117074 76 35052ft 505kts
28-Jan-17 06:24 50.339780 -33.906453 76 35054ft 506kts
28-Jan-17 06:25 50.379695 -33.696025 76 35049ft 505kts
28-Jan-17 06:26 50.418700 -33.484661 76 35051ft 505kts
28-Jan-17 06:27 50.457132 -33.273675 76 35052ft 505kts
28-Jan-17 06:28 50.495375 -33.061263 76 35054ft 506kts
28-Jan-17 06:29 50.533358 -32.848972 77 35050ft 507kts
28-Jan-17 06:30 50.571339 -32.635896 77 35041ft 508kts
28-Jan-17 06:31 50.608472 -32.422283 78 35043ft 507kts
28-Jan-17 06:32 50.645259 -32.207916 78 35047ft 507kts
28-Jan-17 06:33 50.681554 -31.993787 78 35047ft 507kts
28-Jan-17 06:34 50.718008 -31.779352 78 35043ft 507kts
28-Jan-17 06:35 50.753645 -31.564961 78 35046ft 507kts
28-Jan-17 06:36 50.788807 -31.349611 78 35047ft 507kts
28-Jan-17 06:37 50.823636 -31.133464 79 35048ft 509kts
28-Jan-17 06:38 50.858305 -30.915457 79 35050ft 516kts
28-Jan-17 06:39 50.893368 -30.696593 80 35046ft 512kts
28-Jan-17 06:40 50.926825 -30.481036 81 35042ft 499kts
28-Jan-17 06:41 50.959144 -30.269578 82 35049ft 486kts
28-Jan-17 06:42 50.990153 -30.063904 82 35044ft 475kts
28-Jan-17 06:43 51.005146 -29.859872 91 35049ft 463kts
28-Jan-17 06:44 51.014228 -29.657928 92 35051ft 459kts
28-Jan-17 06:45 51.022031 -29.455970 92 35043ft 456kts
28-Jan-17 06:46 51.029351 -29.255727 92 35046ft 453kts
28-Jan-17 06:47 51.036282 -29.056381 92 35047ft 452kts
28-Jan-17 06:48 51.043078 -28.854530 90 35044ft 465kts
28-Jan-17 06:49 51.050090 -28.649160 90 35047ft 467kts
28-Jan-17 06:50 51.056211 -28.443516 90 35047ft 466kts
28-Jan-17 06:51 51.061914 -28.238446 90 35074ft 465kts
28-Jan-17 06:52 51.067240 -28.033902 90 35074ft 465kts
28-Jan-17 06:53 51.072553 -27.828732 90 35074ft 464kts
28-Jan-17 06:54 51.077548 -27.624041 90 35074ft 465kts
28-Jan-17 06:55 51.081837 -27.419028 90 35078ft 465kts
28-Jan-17 06:56 51.085744 -27.213821 91 35075ft 465kts
28-Jan-17 06:57 51.089269 -27.008951 90 35075ft 466kts
28-Jan-17 06:58 51.092922 -26.803133 90 35074ft 467kts
28-Jan-17 06:59 51.096044 -26.596656 90 35072ft 467kts
28-Jan-17 07:00 51.098527 -26.391208 90 35074ft 467kts
28-Jan-17 07:01 51.100647 -26.184622 90 35074ft 467kts
28-Jan-17 07:02 51.102393 -25.978819 90 35072ft 467kts
28-Jan-17 07:03 51.104327 -25.772855 91 35075ft 467kts
28-Jan-17 07:04 51.105531 -25.566672 91 35075ft 467kts
28-Jan-17 07:05 51.106206 -25.360587 91 35074ft 467kts
28-Jan-17 07:06 51.106503 -25.154410 91 35072ft 468kts
28-Jan-17 07:07 51.106428 -24.948016 89 35074ft 465kts
28-Jan-17 07:08 51.106628 -24.742861 90 35073ft 465kts
28-Jan-17 07:09 51.105972 -24.537570 90 35074ft 465kts
28-Jan-17 07:10 51.104838 -24.332320 90 35074ft 465kts
28-Jan-17 07:11 51.103333 -24.126399 90 35003ft 465kts
28-Jan-17 07:12 51.101475 -23.921491 90 34876ft 465kts
28-Jan-17 07:13 51.099898 -23.715885 91 34880ft 465kts
28-Jan-17 07:14 51.097402 -23.510400 91 34887ft 465kts
28-Jan-17 07:15 51.094470 -23.305362 91 34639ft 465kts
28-Jan-17 07:16 51.091172 -23.100175 91 34561ft 465kts
28-Jan-17 07:17 51.087472 -22.893480 91 34562ft 473kts
28-Jan-17 07:18 51.084065 -22.684909 90 34559ft 474kts
28-Jan-17 07:19 51.079655 -22.475601 90 34561ft 474kts
28-Jan-17 07:20 51.074807 -22.266359 90 34561ft 474kts
28-Jan-17 07:21 51.069588 -22.057383 90 34563ft 474kts
28-Jan-17 07:22 51.064208 -21.848963 90 34768ft 474kts
28-Jan-17 07:23 51.058762 -21.640341 91 34846ft 474kts
28-Jan-17 07:24 51.052468 -21.431770 91 34857ft 474kts
28-Jan-17 07:25 51.045761 -21.222907 91 34858ft 474kts
28-Jan-17 07:26 51.038668 -21.013903 90 34859ft 480kts
28-Jan-17 07:27 51.031501 -20.800233 90 34855ft 488kts
28-Jan-17 07:28 51.023685 -20.585092 91 34858ft 488kts
28-Jan-17 07:29 51.015246 -20.370543 91 34858ft 488kts
28-Jan-17 07:30 51.006360 -20.155475 91 34860ft 489kts
28-Jan-17 07:31 51.000289 -19.941193 84 34860ft 486kts
28-Jan-17 07:32 51.005609 -19.726930 86 34855ft 486kts
28-Jan-17 07:33 51.009470 -19.512370 86 34856ft 486kts
28-Jan-17 07:34 51.012798 -19.298486 86 34860ft 486kts
28-Jan-17 07:35 51.015744 -19.083403 86 34862ft 493kts
28-Jan-17 07:36 51.018420 -18.864431 86 34857ft 500kts
28-Jan-17 07:37 51.021235 -18.644361 86 34858ft 500kts
28-Jan-17 07:38 51.023056 -18.423518 86 34857ft 500kts
28-Jan-17 07:39 51.024420 -18.203488 86 34859ft 500kts
28-Jan-17 07:40 51.025373 -17.982911 86 34860ft 500kts
28-Jan-17 07:41 51.026484 -17.762594 87 34858ft 500kts
28-Jan-17 07:42 51.026768 -17.542121 87 34860ft 500kts
28-Jan-17 07:43 51.026485 -17.321971 87 34858ft 500kts
28-Jan-17 07:44 51.025780 -17.101336 87 34861ft 500kts
28-Jan-17 07:45 51.024672 -16.879871 87 34859ft 507kts
28-Jan-17 07:46 51.023782 -16.655276 88 34856ft 510kts
28-Jan-17 07:47 51.021821 -16.430649 88 34858ft 510kts
28-Jan-17 07:48 51.019393 -16.206108 88 34860ft 510kts
28-Jan-17 07:49 51.016526 -15.981181 88 34862ft 510kts
28-Jan-17 07:50 51.013815 -15.756780 88 34856ft 509kts
28-Jan-17 07:51 51.010269 -15.533264 89 34852ft 503kts
28-Jan-17 07:52 51.006169 -15.311454 89 34859ft 502kts
28-Jan-17 07:53 51.001668 -15.090674 89 34859ft 503kts
28-Jan-17 07:54 51.000119 -14.867329 87 34857ft 511kts
28-Jan-17 07:55 51.001122 -14.642000 87 34857ft 511kts
28-Jan-17 07:56 51.001047 -14.416942 87 34858ft 511kts
28-Jan-17 07:57 51.000505 -14.192137 87 34860ft 510kts
28-Jan-17 07:58 51.005167 -13.968185 74 34860ft 505kts
28-Jan-17 07:59 51.037225 -13.752347 72 34856ft 505kts
28-Jan-17 08:00 51.069194 -13.535149 72 34857ft 505kts
28-Jan-17 08:01 51.100609 -13.318013 72 34859ft 505kts
28-Jan-17 08:02 51.131704 -13.099966 72 34861ft 506kts
28-Jan-17 08:03 51.162273 -12.882595 73 34858ft 506kts
28-Jan-17 08:04 51.193301 -12.663642 73 34855ft 506kts
28-Jan-17 08:05 51.223182 -12.445028 73 34856ft 507kts
28-Jan-17 08:06 51.252696 -12.225478 73 34858ft 506kts
28-Jan-17 08:07 51.281723 -12.006213 73 34860ft 506kts
28-Jan-17 08:08 51.310206 -11.791643 73 34854ft 507kts
28-Jan-17 08:09 51.338645 -11.571964 74 34856ft 507kts
28-Jan-17 08:10 51.366589 -11.350861 74 34857ft 507kts
28-Jan-17 08:11 51.393970 -11.130567 74 34859ft 506kts
28-Jan-17 08:12 51.420918 -10.910147 74 34859ft 504kts
28-Jan-17 08:13 51.447932 -10.691275 74 34854ft 502kts
28-Jan-17 08:14 51.473926 -10.472051 74 34854ft 502kts
28-Jan-17 08:15 51.499420 -10.252778 74 34855ft 502kts
28-Jan-17 08:16 51.524527 -10.033066 74 34855ft 501kts
28-Jan-17 08:17 51.549472 -9.814586 75 34851ft 502kts
28-Jan-17 08:18 51.573623 -9.598614 75 34861ft 502kts
28-Jan-17 08:19 51.597547 -9.377940 75 34860ft 502kts
28-Jan-17 08:20 51.621069 -9.156760 75 34864ft 502kts
28-Jan-17 08:21 51.644181 -8.935125 74 34866ft 504kts
28-Jan-17 08:22 51.667451 -8.714477 74 34859ft 505kts
28-Jan-17 08:23 51.689872 -8.492089 74 34861ft 505kts
28-Jan-17 08:24 51.708214 -8.305998 74 34862ft 505kts
28-Jan-17 08:25 51.733383 -8.045476 74 34865ft 505kts
28-Jan-17 08:26 51.752801 -7.822119 80 34856ft 510kts
28-Jan-17 08:27 51.760205 -7.594086 82 34860ft 511kts
28-Jan-17 08:28 51.765801 -7.365358 82 34861ft 511kts
28-Jan-17 08:29 51.770855 -7.136929 81 34864ft 510kts
28-Jan-17 08:30 51.775470 -6.908267 81 34867ft 512kts
28-Jan-17 08:31 51.780320 -6.680450 82 34860ft 511kts
28-Jan-17 08:32 51.779133 -6.488722 87 34861ft 516kts
28-Jan-17 08:33 51.769993 -6.258509 88 34861ft 515kts
28-Jan-17 08:34 51.760183 -6.028556 87 34869ft 516kts
28-Jan-17 08:35 51.748751 -5.761411 88 34857ft 515kts
28-Jan-17 08:36 51.739948 -5.569876 88 34912ft 516kts
28-Jan-17 08:37 51.728750 -5.339667 88 34943ft 516kts
28-Jan-17 08:38 51.717418 -5.116898 88 34946ft 516kts
28-Jan-17 08:39 51.705337 -4.888118 91 34943ft 509kts
28-Jan-17 08:40 51.693792 -4.665196 91 34928ft 504kts
28-Jan-17 08:41 51.681075 -4.440528 92 34916ft 503kts
28-Jan-17 08:42 51.667951 -4.216965 92 34918ft 503kts
28-Jan-17 08:43 51.654369 -3.993130 92 34919ft 503kts
28-Jan-17 08:44 51.641169 -3.772977 92 34912ft 503kts
28-Jan-17 08:45 51.627234 -3.549146 92 34920ft 503kts
28-Jan-17 08:46 51.612714 -3.325962 92 35002ft 503kts
28-Jan-17 08:47 51.586158 -3.104620 99 35003ft 506kts
28-Jan-17 08:48 51.557397 -2.889430 102 34931ft 492kts
28-Jan-17 08:49 51.529119 -2.676717 102 34912ft 491kts
28-Jan-17 08:50 51.501377 -2.475426 102 34912ft 491kts
28-Jan-17 08:51 51.501377 -2.475426 102 34912ft 491kts
28-Jan-17 08:52 51.501377 -2.475426 102 34912ft 491kts
28-Jan-17 08:53 51.501377 -2.475426 102 34912ft 491kts
28-Jan-17 08:54 51.501377 -2.475426 102 34912ft 491kts
28-Jan-17 08:55 51.501377 -2.475426 102 34912ft 491kts
28-Jan-17 08:56 51.501377 -2.475426 102 34912ft 491kts
28-Jan-17 08:57 51.504983 -2.264931 70 33002ft 492kts
28-Jan-17 08:58 51.516081 -2.047836 96 30832ft 498kts
28-Jan-17 08:59 51.499623 -1.831826 97 29305ft 476kts
28-Jan-17 09:00 51.482555 -1.622848 98 26608ft 455kts
28-Jan-17 09:01 51.466237 -1.432124 98 24428ft 443kts
28-Jan-17 09:02 51.449503 -1.240402 99 22102ft 437kts
28-Jan-17 09:03 51.433071 -1.054955 100 19571ft 437kts
28-Jan-17 09:04 51.415931 -0.864805 101 16773ft 436kts
28-Jan-17 09:05 51.398817 -0.673859 101 13913ft 433kts
28-Jan-17 09:06 51.381081 -0.484901 101 11044ft 428kts
28-Jan-17 09:07 51.363297 -0.298934 101 8181ft 419kts
28-Jan-17 09:08 51.357789 -0.120058 77 5333ft 410kts
28-Jan-17 09:09 51.430600 0.007589 17 2534ft 397kts
28-Jan-17 09:10 51.511523 -0.020330 286 2361ft 212kts
28-Jan-17 09:11 51.504219 -0.100061 254 2595ft 185kts
28-Jan-17 09:12 51.492574 -0.180504 254 2451ft 180kts
28-Jan-17 09:13 51.481672 -0.256407 257 2426ft 168kts
28-Jan-17 09:14 51.478002 -0.325088 265 1393ft 144kts
28-Jan-17 09:15 51.477938 -0.385088 266 667ft 130kts
28-Jan-17 09:16 51.477664 -0.442862 267 96ft 122kts
28-Jan-17 09:17 51.475458 -0.461006 220 94ft 18kts

Navigation Log

Ident Type
Flight plan parsing failed, navigation log unavailable